createdAt,value
2023-05-05T00:01:04.269Z,31.23
2023-05-05T00:03:34.320Z,31.34
2023-05-05T00:06:02.811Z,31.42
2023-05-05T00:08:31.185Z,31.41
2023-05-05T00:10:59.517Z,31.60
2023-05-05T00:13:27.951Z,31.54
2023-05-05T00:15:57.736Z,31.65
2023-05-05T00:18:26.231Z,31.76
2023-05-05T00:20:54.983Z,31.98
2023-05-05T00:23:23.399Z,32.02
2023-05-05T00:25:51.870Z,32.25
2023-05-05T00:28:20.142Z,32.25
2023-05-05T00:30:48.536Z,32.12
2023-05-05T00:33:18.324Z,32.41
2023-05-05T00:35:46.728Z,32.23
2023-05-05T00:38:15.051Z,32.27
2023-05-05T00:40:43.474Z,32.53
2023-05-05T00:43:13.005Z,32.37
2023-05-05T00:45:44.236Z,32.63
2023-05-05T00:48:12.752Z,32.50
2023-05-05T00:50:45.942Z,32.77
2023-05-05T00:53:14.484Z,32.57
2023-05-05T00:55:42.955Z,32.87
2023-05-05T00:58:11.327Z,32.90
2023-05-05T01:00:39.666Z,33.04
2023-05-05T01:03:08.171Z,33.24
2023-05-05T01:05:47.849Z,33.28
2023-05-05T01:08:36.110Z,33.19
2023-05-05T01:11:13.176Z,33.09
2023-05-05T01:13:59.393Z,33.06
2023-05-05T01:16:31.896Z,33.34
2023-05-05T01:19:10.740Z,33.50
2023-05-05T01:21:44.716Z,33.50
2023-05-05T01:24:44.997Z,33.68
2023-05-05T01:27:50.467Z,33.64
2023-05-05T01:30:39.778Z,33.34
2023-05-05T01:33:15.462Z,33.45
2023-05-05T01:35:48.369Z,33.62
2023-05-05T01:38:20.900Z,33.42
2023-05-05T01:40:53.886Z,33.59
2023-05-05T01:43:28.711Z,33.58
2023-05-05T01:45:58.510Z,33.48
2023-05-05T01:48:29.908Z,33.48
2023-05-05T01:51:00.615Z,33.49
2023-05-05T01:53:30.257Z,33.57
2023-05-05T01:55:59.524Z,33.54
2023-05-05T01:58:30.252Z,33.47
2023-05-05T02:01:00.062Z,33.45
2023-05-05T02:03:32.192Z,33.62
2023-05-05T02:06:03.624Z,33.37
2023-05-05T02:08:33.970Z,33.64
2023-05-05T02:11:03.001Z,33.82
2023-05-05T02:13:32.733Z,33.55
2023-05-05T02:16:01.872Z,33.79
2023-05-05T02:18:35.821Z,33.95
2023-05-05T02:21:04.596Z,33.80
2023-05-05T02:23:33.160Z,33.87
2023-05-05T02:26:07.192Z,34.13
2023-05-05T02:28:43.804Z,34.00
2023-05-05T02:31:13.882Z,34.03
2023-05-05T02:33:46.854Z,34.09
2023-05-05T02:36:21.667Z,34.31
2023-05-05T02:38:55.614Z,34.42
2023-05-05T02:41:26.860Z,34.33
2023-05-05T02:43:58.960Z,34.35
2023-05-05T02:46:28.659Z,34.38
2023-05-05T02:48:59.732Z,34.90
2023-05-05T02:51:28.869Z,34.76
2023-05-05T02:53:57.208Z,34.82
2023-05-05T02:56:39.947Z,35.10
2023-05-05T02:59:17.114Z,34.96
2023-05-05T03:02:01.761Z,35.06
2023-05-05T03:04:40.137Z,35.15
2023-05-05T03:07:14.246Z,35.03
2023-05-05T03:09:47.842Z,35.11
2023-05-05T03:12:22.802Z,35.12
2023-05-05T03:14:55.193Z,35.00
2023-05-05T03:17:25.703Z,35.25
2023-05-05T03:19:56.579Z,35.23
2023-05-05T03:22:27.445Z,35.10
2023-05-05T03:24:55.786Z,35.38
2023-05-05T03:27:24.143Z,35.27
2023-05-05T03:29:52.502Z,35.33
2023-05-05T03:32:21.443Z,35.46
2023-05-05T03:34:49.758Z,35.47
2023-05-05T03:37:19.529Z,35.78
2023-05-05T03:39:47.914Z,35.58
2023-05-05T03:42:16.549Z,35.64
2023-05-05T03:44:45.168Z,35.68
2023-05-05T03:47:13.569Z,35.86
2023-05-05T03:49:42.085Z,35.86
2023-05-05T03:52:10.850Z,36.01
2023-05-05T03:54:42.541Z,36.09
2023-05-05T03:57:10.947Z,35.97
2023-05-05T03:59:39.266Z,36.09
2023-05-05T04:02:07.730Z,36.35
2023-05-05T04:04:36.235Z,36.20
2023-05-05T04:07:04.643Z,36.22
2023-05-05T04:09:32.990Z,36.27
2023-05-05T04:12:03.138Z,36.56
2023-05-05T04:14:31.473Z,36.41
2023-05-05T04:16:59.816Z,36.30
2023-05-05T04:19:28.219Z,36.53
2023-05-05T04:21:56.526Z,36.66
2023-05-05T04:24:26.014Z,36.36
2023-05-05T04:26:55.097Z,36.48
2023-05-05T04:29:25.175Z,36.44
2023-05-05T04:31:53.992Z,36.36
2023-05-05T04:34:22.446Z,36.28
2023-05-05T04:36:50.795Z,36.52
2023-05-05T04:39:19.195Z,36.37
2023-05-05T04:41:47.831Z,36.52
2023-05-05T04:44:16.816Z,36.43
2023-05-05T04:46:47.704Z,36.33
2023-05-05T04:49:16.183Z,36.36
2023-05-05T04:51:44.710Z,36.44
2023-05-05T04:54:13.114Z,36.61
2023-05-05T04:56:41.517Z,36.48
2023-05-05T04:59:09.862Z,36.43
2023-05-05T05:01:38.721Z,36.11
2023-05-05T05:04:08.590Z,35.83
2023-05-05T05:06:37.006Z,35.71
2023-05-05T05:09:05.484Z,35.55
2023-05-05T05:11:33.854Z,35.48
2023-05-05T05:14:02.309Z,35.46
2023-05-05T05:16:30.829Z,35.21
2023-05-05T05:19:01.454Z,35.15
2023-05-05T05:21:31.742Z,35.16
2023-05-05T05:24:00.175Z,35.09
2023-05-05T05:26:28.969Z,35.07
2023-05-05T05:28:57.346Z,35.04
2023-05-05T05:31:25.903Z,34.79
2023-05-05T05:33:54.252Z,34.73
2023-05-05T05:36:22.634Z,34.71
2023-05-05T05:38:52.420Z,34.53
2023-05-05T05:41:21.660Z,34.60
2023-05-05T05:43:50.019Z,34.51
2023-05-05T05:46:18.413Z,34.33
2023-05-05T05:48:46.969Z,34.17
2023-05-05T05:51:15.341Z,34.34
2023-05-05T05:53:43.635Z,34.16
2023-05-05T05:56:13.302Z,34.07
2023-05-05T05:58:42.468Z,33.95
2023-05-05T06:01:10.964Z,33.75
2023-05-05T06:03:39.499Z,33.66
2023-05-05T06:06:08.558Z,33.67
2023-05-05T06:08:36.953Z,33.46
2023-05-05T06:11:05.439Z,33.44
2023-05-05T06:13:35.226Z,33.25
2023-05-05T06:16:03.789Z,33.22
2023-05-05T06:18:32.194Z,32.87
2023-05-05T06:21:00.964Z,33.08
2023-05-05T06:23:29.373Z,32.92
2023-05-05T06:25:57.797Z,32.65
2023-05-05T06:28:26.162Z,32.80
2023-05-05T06:30:56.546Z,32.58
2023-05-05T06:33:25.000Z,32.31
2023-05-05T06:35:54.450Z,32.42
2023-05-05T06:38:22.876Z,32.15
2023-05-05T06:40:51.459Z,31.73
2023-05-05T06:43:20.078Z,31.49
2023-05-05T06:45:48.605Z,31.59
2023-05-05T06:48:20.193Z,31.25
2023-05-05T06:50:48.564Z,31.42
2023-05-05T06:53:16.944Z,31.09
2023-05-05T06:55:48.163Z,31.60
2023-05-05T06:58:16.564Z,31.46
2023-05-05T07:00:45.011Z,31.59
2023-05-05T07:03:13.527Z,31.20
2023-05-05T07:05:43.500Z,31.08
2023-05-05T07:08:11.959Z,30.75
2023-05-05T07:10:40.434Z,30.80
2023-05-05T07:13:09.181Z,30.33
2023-05-05T07:15:37.768Z,30.06
2023-05-05T07:18:06.569Z,30.25
2023-05-05T07:20:35.084Z,30.13
2023-05-05T07:23:04.815Z,30.03
2023-05-05T07:25:33.527Z,30.02
2023-05-05T07:28:02.096Z,29.68
2023-05-05T07:30:30.791Z,29.90
2023-05-05T07:32:59.210Z,29.37
2023-05-05T07:35:27.789Z,29.40
2023-05-05T07:37:56.207Z,28.98
2023-05-05T07:40:26.335Z,29.20
2023-05-05T07:42:54.824Z,29.05
2023-05-05T07:45:23.373Z,28.95
2023-05-05T07:47:51.790Z,28.83
2023-05-05T07:50:20.628Z,28.69
2023-05-05T07:52:54.006Z,28.41
2023-05-05T07:55:32.067Z,28.25
2023-05-05T07:58:00.481Z,28.18
2023-05-05T08:00:28.876Z,28.08
2023-05-05T08:02:57.572Z,28.03
2023-05-05T08:05:26.157Z,28.20
2023-05-05T08:07:54.624Z,28.06
2023-05-05T08:10:23.372Z,27.93
2023-05-05T08:12:54.423Z,27.74
2023-05-05T08:15:22.872Z,27.84
2023-05-05T08:17:53.459Z,27.91
2023-05-05T08:20:23.094Z,27.74
2023-05-05T08:22:51.715Z,27.64
2023-05-05T08:25:20.167Z,27.60
2023-05-05T08:27:48.549Z,27.31
2023-05-05T08:30:20.908Z,27.34
2023-05-05T08:32:49.501Z,27.30
2023-05-05T08:35:18.251Z,27.17
2023-05-05T08:37:46.679Z,27.10
2023-05-05T08:40:16.124Z,27.29
2023-05-05T08:42:45.840Z,27.29
2023-05-05T08:45:14.486Z,26.76
2023-05-05T08:47:45.302Z,26.89
2023-05-05T08:50:14.114Z,26.95
2023-05-05T08:52:45.642Z,26.97
2023-05-05T08:55:19.540Z,26.62
2023-05-05T08:57:52.584Z,27.13
2023-05-05T09:00:22.444Z,26.73
2023-05-05T09:02:52.913Z,26.79
2023-05-05T09:05:21.568Z,26.44
2023-05-05T09:07:51.103Z,26.37
2023-05-05T09:10:20.107Z,26.64
2023-05-05T09:12:50.165Z,26.46
2023-05-05T09:15:18.756Z,26.33
2023-05-05T09:17:47.738Z,26.50
2023-05-05T09:20:17.791Z,26.74
2023-05-05T09:22:48.197Z,26.28
2023-05-05T09:25:18.945Z,26.19
2023-05-05T09:27:49.407Z,26.17
2023-05-05T09:30:19.465Z,26.19
2023-05-05T09:32:49.904Z,26.48
2023-05-05T09:35:21.131Z,26.78
2023-05-05T09:37:49.788Z,26.42
2023-05-05T09:40:20.643Z,26.64
2023-05-05T09:42:49.418Z,26.44
2023-05-05T09:45:28.480Z,26.49
2023-05-05T09:48:00.170Z,26.86
2023-05-05T09:50:32.696Z,26.88
2023-05-05T09:53:02.753Z,27.00
2023-05-05T09:55:32.141Z,27.08
2023-05-05T09:58:19.956Z,27.15
2023-05-05T10:00:48.694Z,27.25
2023-05-05T10:03:17.433Z,27.22
2023-05-05T10:05:54.021Z,27.17
2023-05-05T10:08:24.943Z,27.16
2023-05-05T10:10:55.487Z,27.65
2023-05-05T10:13:26.194Z,27.18
2023-05-05T10:15:56.996Z,27.36
2023-05-05T10:18:27.537Z,27.58
2023-05-05T10:21:01.953Z,27.73
2023-05-05T10:23:37.425Z,27.57
2023-05-05T10:26:08.468Z,27.33
2023-05-05T10:28:45.770Z,27.26
2023-05-05T10:31:26.321Z,27.42
2023-05-05T10:34:01.493Z,27.58
2023-05-05T10:36:32.604Z,27.42
2023-05-05T10:39:02.561Z,26.99
2023-05-05T10:41:31.957Z,27.11
2023-05-05T10:44:03.661Z,27.15
2023-05-05T10:46:33.579Z,26.91
2023-05-05T10:49:13.790Z,26.22
2023-05-05T10:51:55.896Z,25.73
2023-05-05T10:54:34.668Z,25.27
2023-05-05T10:57:08.205Z,24.99
2023-05-05T10:59:47.528Z,24.51
2023-05-05T11:02:37.343Z,24.16
2023-05-05T11:05:14.477Z,23.18
2023-05-05T11:07:46.177Z,22.74
2023-05-05T11:10:16.636Z,22.25
2023-05-05T11:13:22.150Z,22.03
2023-05-05T11:15:52.463Z,21.24
2023-05-05T11:18:38.214Z,21.27
2023-05-05T11:21:18.810Z,20.65
2023-05-05T11:23:51.584Z,20.01
2023-05-05T11:26:51.590Z,19.69
2023-05-05T11:29:19.953Z,19.35
2023-05-05T11:32:15.727Z,19.21
2023-05-05T11:34:51.072Z,18.80
2023-05-05T11:37:23.679Z,18.42
2023-05-05T11:40:08.958Z,18.57
2023-05-05T11:42:37.710Z,17.94
2023-05-05T11:45:23.276Z,17.33
2023-05-05T11:47:52.009Z,16.82
2023-05-05T11:50:23.226Z,16.41
2023-05-05T11:52:51.920Z,15.91
2023-05-05T11:55:24.792Z,15.49
2023-05-05T11:57:54.328Z,15.43
2023-05-05T12:00:34.765Z,15.07
2023-05-05T12:03:03.345Z,14.65
2023-05-05T12:05:36.410Z,14.36
2023-05-05T12:08:06.104Z,14.07
2023-05-05T12:10:36.056Z,13.92
2023-05-05T12:13:04.522Z,13.46
2023-05-05T12:15:33.748Z,13.02
2023-05-05T12:18:03.240Z,12.83
2023-05-05T12:20:35.161Z,12.37
2023-05-05T12:23:04.970Z,12.58
2023-05-05T12:25:39.357Z,12.34
2023-05-05T12:28:09.124Z,11.94
2023-05-05T12:30:37.744Z,11.83
2023-05-05T12:33:08.165Z,11.71
2023-05-05T12:35:37.094Z,11.51
2023-05-05T12:38:05.519Z,10.99
2023-05-05T12:40:51.796Z,10.79
2023-05-05T12:43:31.355Z,10.61
2023-05-05T12:46:09.473Z,10.20
2023-05-05T12:48:39.981Z,9.95
2023-05-05T12:51:20.667Z,9.77
2023-05-05T12:53:50.493Z,9.67
2023-05-05T12:56:37.969Z,9.21
2023-05-05T12:59:08.465Z,9.22
2023-05-05T13:01:38.243Z,9.15
2023-05-05T13:04:14.286Z,9.06
2023-05-05T13:06:45.004Z,8.61
2023-05-05T13:09:24.834Z,8.56
2023-05-05T13:11:55.561Z,8.52
2023-05-05T13:14:24.435Z,8.44
2023-05-05T13:16:53.891Z,8.52
2023-05-05T13:19:23.745Z,8.41
2023-05-05T13:21:52.286Z,8.53
2023-05-05T13:24:28.567Z,8.41
2023-05-05T13:27:01.271Z,8.29
2023-05-05T13:29:31.589Z,8.29
2023-05-05T13:32:00.418Z,8.16
2023-05-05T13:34:28.805Z,7.92
2023-05-05T13:36:57.381Z,7.58
2023-05-05T13:39:25.976Z,7.48
2023-05-05T13:41:54.810Z,7.44
2023-05-05T13:44:24.702Z,7.05
2023-05-05T13:46:53.198Z,7.08
2023-05-05T13:49:21.637Z,7.07
2023-05-05T13:51:50.043Z,6.90
2023-05-05T13:54:18.386Z,6.63
2023-05-05T13:56:47.356Z,7.00
2023-05-05T13:59:15.785Z,6.63
2023-05-05T14:01:45.549Z,6.75
2023-05-05T14:04:13.942Z,6.40
2023-05-05T14:06:43.964Z,6.21
2023-05-05T14:09:13.274Z,6.41
2023-05-05T14:11:42.041Z,6.07
2023-05-05T14:14:10.788Z,6.06
2023-05-05T14:16:39.199Z,6.31
2023-05-05T14:19:09.034Z,6.17
2023-05-05T14:21:37.473Z,5.81
2023-05-05T14:24:06.593Z,5.71
2023-05-05T14:26:34.920Z,5.96
2023-05-05T14:29:03.495Z,5.80
2023-05-05T14:31:32.094Z,5.88
2023-05-05T14:34:00.574Z,5.66
2023-05-05T14:36:30.407Z,5.88
2023-05-05T14:38:58.895Z,5.88
2023-05-05T14:41:27.317Z,5.69
2023-05-05T14:43:57.251Z,5.74
2023-05-05T14:46:26.241Z,5.50
2023-05-05T14:48:54.687Z,5.76
2023-05-05T14:51:23.156Z,5.82
2023-05-05T14:53:53.002Z,5.80
2023-05-05T14:56:22.473Z,6.36
2023-05-05T14:58:50.898Z,6.36
2023-05-05T15:01:20.680Z,6.65
2023-05-05T15:03:49.196Z,6.75
2023-05-05T15:06:17.783Z,6.65
2023-05-05T15:08:46.274Z,7.04
2023-05-05T15:11:16.051Z,6.96
2023-05-05T15:13:44.377Z,6.81
2023-05-05T15:16:12.870Z,7.08
2023-05-05T15:18:41.388Z,7.10
2023-05-05T15:21:09.752Z,6.98
2023-05-05T15:23:38.253Z,6.45
2023-05-05T15:26:06.665Z,6.98
2023-05-05T15:28:36.403Z,7.08
2023-05-05T15:31:06.338Z,7.54
2023-05-05T15:33:34.846Z,8.29
2023-05-05T15:36:03.245Z,8.53
2023-05-05T15:38:31.557Z,9.29
2023-05-05T15:41:00.134Z,9.86
2023-05-05T15:43:28.892Z,10.67
2023-05-05T15:45:58.642Z,10.57
2023-05-05T15:48:27.066Z,11.75
2023-05-05T15:50:55.535Z,12.32
2023-05-05T15:53:26.174Z,12.36
2023-05-05T15:55:54.664Z,12.64
2023-05-05T15:58:23.138Z,12.93
2023-05-05T16:00:51.632Z,13.23
2023-05-05T16:03:21.614Z,13.27
2023-05-05T16:05:50.150Z,13.55
2023-05-05T16:08:18.714Z,13.66
2023-05-05T16:10:47.138Z,14.32
2023-05-05T16:13:16.156Z,14.56
2023-05-05T16:15:44.821Z,14.62
2023-05-05T16:18:13.231Z,14.56
2023-05-05T16:20:42.917Z,14.86
2023-05-05T16:23:11.349Z,14.97
2023-05-05T16:25:39.728Z,15.08
2023-05-05T16:28:08.117Z,15.28
2023-05-05T16:30:36.510Z,15.48
2023-05-05T16:33:04.996Z,15.55
2023-05-05T16:35:33.490Z,15.82
2023-05-05T16:38:03.263Z,15.79
2023-05-05T16:40:31.755Z,15.60
2023-05-05T16:43:00.234Z,16.10
2023-05-05T16:45:28.601Z,16.12
2023-05-05T16:47:57.023Z,16.08
2023-05-05T16:50:25.443Z,16.41
2023-05-05T16:52:53.831Z,16.39
2023-05-05T16:55:23.626Z,16.51
2023-05-05T16:57:52.124Z,16.48
2023-05-05T17:00:20.792Z,16.63
2023-05-05T17:02:49.245Z,16.52
2023-05-05T17:05:18.521Z,16.69
2023-05-05T17:07:48.280Z,16.72
2023-05-05T17:10:16.773Z,17.31
2023-05-05T17:12:46.572Z,17.05
2023-05-05T17:15:14.948Z,17.37
2023-05-05T17:17:43.404Z,17.78
2023-05-05T17:20:13.185Z,17.63
2023-05-05T17:22:41.559Z,18.01
2023-05-05T17:25:11.387Z,18.24
2023-05-05T17:27:40.080Z,18.29
2023-05-05T17:30:11.540Z,18.58
2023-05-05T17:32:39.897Z,18.62
2023-05-05T17:35:09.442Z,18.63
2023-05-05T17:37:38.129Z,18.62
2023-05-05T17:40:08.526Z,18.83
2023-05-05T17:42:38.243Z,18.64
2023-05-05T17:45:10.156Z,18.84
2023-05-05T17:47:38.879Z,18.92
2023-05-05T17:50:10.841Z,19.35
2023-05-05T17:52:40.405Z,19.30
2023-05-05T17:55:10.221Z,19.19
2023-05-05T17:57:39.080Z,19.80
2023-05-05T18:00:10.887Z,19.48
2023-05-05T18:02:39.552Z,19.78
2023-05-05T18:05:09.674Z,20.25
2023-05-05T18:07:38.886Z,20.30
2023-05-05T18:10:10.731Z,21.00
2023-05-05T18:12:39.233Z,21.28
2023-05-05T18:15:11.398Z,21.75
2023-05-05T18:17:40.509Z,21.90
2023-05-05T18:20:10.579Z,21.95
2023-05-05T18:22:39.007Z,22.12
2023-05-05T18:25:10.210Z,22.37
2023-05-05T18:27:38.982Z,22.07
2023-05-05T18:30:10.801Z,22.72
2023-05-05T18:32:39.422Z,22.89
2023-05-05T18:35:09.388Z,22.59
2023-05-05T18:37:38.172Z,22.74
2023-05-05T18:40:10.009Z,22.83
2023-05-05T18:42:38.476Z,23.32
2023-05-05T18:45:10.586Z,23.16
2023-05-05T18:47:40.180Z,23.49
2023-05-05T18:50:10.521Z,23.91
2023-05-05T18:52:38.971Z,24.06
2023-05-05T18:55:08.129Z,24.18
2023-05-05T18:57:36.738Z,24.18
2023-05-05T19:00:06.166Z,24.56
2023-05-05T19:02:35.977Z,24.84
2023-05-05T19:05:04.994Z,25.01
2023-05-05T19:07:35.363Z,25.05
2023-05-05T19:10:06.562Z,24.95
2023-05-05T19:12:35.154Z,25.12
2023-05-05T19:15:03.510Z,25.36
2023-05-05T19:17:31.901Z,25.47
2023-05-05T19:20:02.208Z,25.28
2023-05-05T19:22:30.596Z,25.77
2023-05-05T19:24:58.946Z,25.89
2023-05-05T19:27:27.290Z,26.32
2023-05-05T19:29:55.702Z,26.47
2023-05-05T19:32:24.196Z,26.42
2023-05-05T19:34:54.391Z,26.60
2023-05-05T19:37:24.238Z,26.57
2023-05-05T19:39:52.648Z,26.80
2023-05-05T19:42:21.085Z,26.87
2023-05-05T19:44:49.648Z,26.91
2023-05-05T19:47:18.031Z,27.09
2023-05-05T19:49:46.430Z,27.26
2023-05-05T19:52:14.874Z,27.74
2023-05-05T19:54:44.543Z,27.46
2023-05-05T19:57:13.077Z,27.50
2023-05-05T19:59:41.757Z,27.67
2023-05-05T20:02:11.556Z,27.62
2023-05-05T20:04:39.921Z,27.75
2023-05-05T20:07:08.245Z,28.06
2023-05-05T20:09:37.706Z,28.00
2023-05-05T20:12:08.688Z,28.01
2023-05-05T20:14:37.020Z,28.05
2023-05-05T20:17:05.388Z,28.08
2023-05-05T20:19:33.731Z,28.14
2023-05-05T20:22:02.124Z,28.09
2023-05-05T20:24:30.611Z,28.54
2023-05-05T20:26:58.912Z,28.29
2023-05-05T20:29:28.649Z,28.41
2023-05-05T20:31:57.240Z,28.42
2023-05-05T20:34:27.504Z,28.53
2023-05-05T20:36:56.504Z,28.61
2023-05-05T20:39:25.086Z,28.84
2023-05-05T20:41:53.378Z,28.57
2023-05-05T20:44:21.698Z,28.61
2023-05-05T20:46:51.672Z,28.68
2023-05-05T20:49:20.078Z,28.73
2023-05-05T20:51:48.468Z,28.87
2023-05-05T20:54:16.919Z,28.83
2023-05-05T20:56:45.262Z,28.88
2023-05-05T20:59:13.652Z,28.95
2023-05-05T21:01:42.026Z,29.06
2023-05-05T21:04:11.775Z,28.95
2023-05-05T21:06:40.132Z,29.18
2023-05-05T21:09:08.535Z,29.24
2023-05-05T21:11:36.891Z,29.11
2023-05-05T21:14:06.028Z,29.50
2023-05-05T21:16:34.428Z,29.60
2023-05-05T21:19:02.784Z,29.51
2023-05-05T21:21:32.753Z,29.43
2023-05-05T21:24:01.191Z,29.58
2023-05-05T21:26:29.751Z,29.69
2023-05-05T21:28:58.154Z,29.78
2023-05-05T21:31:26.489Z,30.07
2023-05-05T21:33:55.353Z,30.33
2023-05-05T21:36:24.752Z,30.19
2023-05-05T21:38:55.674Z,30.56
2023-05-05T21:41:24.617Z,30.32
2023-05-05T21:43:52.939Z,30.29
2023-05-05T21:46:21.346Z,30.67
2023-05-05T21:48:49.909Z,30.82
2023-05-05T21:51:18.471Z,30.93
2023-05-05T21:53:46.810Z,31.09
2023-05-05T21:56:16.672Z,31.33
2023-05-05T21:58:44.961Z,30.94
2023-05-05T22:01:13.944Z,31.15
2023-05-05T22:03:43.952Z,31.13
2023-05-05T22:06:12.447Z,31.62
2023-05-05T22:08:40.787Z,31.68
2023-05-05T22:11:09.075Z,31.80
2023-05-05T22:13:39.072Z,31.50
2023-05-05T22:16:08.149Z,31.77
2023-05-05T22:18:36.863Z,31.82
2023-05-05T22:21:05.752Z,31.94
2023-05-05T22:23:34.076Z,31.96
2023-05-05T22:26:02.421Z,32.14
2023-05-05T22:28:30.931Z,32.12
2023-05-05T22:31:00.759Z,32.45
2023-05-05T22:33:29.347Z,32.60
2023-05-05T22:35:57.974Z,32.51
2023-05-05T22:38:26.322Z,32.41
2023-05-05T22:40:54.585Z,32.53
2023-05-05T22:43:22.972Z,32.49
2023-05-05T22:45:51.532Z,32.59
2023-05-05T22:48:21.606Z,32.73
2023-05-05T22:50:50.009Z,32.76
2023-05-05T22:53:18.634Z,32.81
2023-05-05T22:55:47.008Z,33.25
2023-05-05T22:58:15.368Z,33.41
2023-05-05T23:00:43.795Z,33.42
2023-05-05T23:03:12.395Z,33.24
2023-05-05T23:05:42.040Z,33.36
2023-05-05T23:08:10.411Z,33.51
2023-05-05T23:10:38.651Z,33.32
2023-05-05T23:13:07.019Z,33.53
2023-05-05T23:15:35.666Z,33.83
2023-05-05T23:18:04.022Z,33.59
2023-05-05T23:20:32.562Z,34.00
2023-05-05T23:23:02.232Z,34.23
2023-05-05T23:25:30.552Z,34.20
2023-05-05T23:27:58.913Z,34.49
2023-05-05T23:30:27.254Z,34.77
2023-05-05T23:32:57.280Z,34.76
2023-05-05T23:35:26.331Z,34.88
2023-05-05T23:37:54.699Z,34.66
2023-05-05T23:40:24.414Z,34.86
2023-05-05T23:42:52.773Z,34.70
2023-05-05T23:45:21.077Z,34.79
2023-05-05T23:47:49.437Z,34.86
2023-05-05T23:50:17.876Z,34.75
2023-05-05T23:52:46.205Z,35.25
2023-05-05T23:55:14.580Z,35.12
2023-05-05T23:57:44.266Z,35.21
